Time;durP1;ratioP1;P1;durP2;ratioP2;P2;SDS_P1;SDS_P2;PMS_P1;PMS_P2;Temp;Humidity;BMP_temperature;BMP_pressure;BME280_temperature;BME280_humidity;BME280_pressure;Samples;Min_cycle;Max_cycle;Signal;HPM_P1;HPM_P2
2022/03/10 00:00:03;;;;;;;4.95;4.55;;;21.40;32.50;;;;;;4994787;28;20081;-60
2022/03/10 00:02:28;;;;;;;5.55;4.75;;;21.40;32.50;;;;;;4992822;28;20096;-59
2022/03/10 00:04:54;;;;;;;4.65;4.25;;;21.40;32.40;;;;;;4994775;28;20050;-59
2022/03/10 00:07:19;;;;;;;5.82;5.28;;;21.40;32.40;;;;;;4994879;28;20735;-59
2022/03/10 00:09:45;;;;;;;5.78;5.15;;;21.40;32.40;;;;;;4991390;28;20613;-58
2022/03/10 00:12:11;;;;;;;5.45;4.95;;;21.40;32.40;;;;;;4977394;28;20137;-59
2022/03/10 00:14:36;;;;;;;5.63;5.13;;;21.40;32.50;;;;;;4994284;28;20050;-59
2022/03/10 00:17:03;;;;;;;7.07;4.85;;;21.30;32.30;;;;;;4992382;28;20049;-59
2022/03/10 00:19:28;;;;;;;6.32;4.60;;;21.30;32.20;;;;;;4993568;28;20052;-59
2022/03/10 00:21:54;;;;;;;5.53;5.03;;;21.30;32.20;;;;;;4992517;28;20050;-58
2022/03/10 00:24:19;;;;;;;5.57;5.07;;;21.30;32.10;;;;;;4991933;28;20107;-58
2022/03/10 00:26:46;;;;;;;4.85;4.45;;;21.30;32.20;;;;;;4992041;28;20156;-59
2022/03/10 00:29:11;;;;;;;4.90;4.50;;;21.30;32.10;;;;;;4993063;28;20054;-59
2022/03/10 00:31:37;;;;;;;5.78;4.97;;;21.20;32.10;;;;;;4995008;28;20051;-59
2022/03/10 00:34:03;;;;;;;5.57;4.97;;;21.30;32.10;;;;;;4996259;28;20129;-58
2022/03/10 00:36:28;;;;;;;4.90;4.50;;;21.20;32.00;;;;;;4995940;28;20046;-59
2022/03/10 00:38:55;;;;;;;6.35;5.10;;;21.20;32.00;;;;;;4993675;28;20065;-58
2022/03/10 00:41:21;;;;;;;5.63;5.05;;;21.20;31.90;;;;;;4993734;28;20072;-59
2022/03/10 00:43:47;;;;;;;5.50;5.00;;;21.20;32.00;;;;;;4992839;28;20461;-58
2022/03/10 00:46:12;;;;;;;4.95;4.55;;;21.20;32.00;;;;;;4993614;28;20054;-59
2022/03/10 00:48:38;;;;;;;5.30;4.80;;;21.20;31.90;;;;;;4992035;28;20062;-59
2022/03/10 00:51:04;;;;;;;5.68;5.18;;;21.20;31.80;;;;;;4991136;28;20046;-59
2022/03/10 00:53:30;;;;;;;5.70;4.78;;;21.20;32.00;;;;;;4993786;28;20046;-59
2022/03/10 00:55:56;;;;;;;5.07;4.60;;;21.20;31.90;;;;;;4994361;28;20041;-58
2022/03/10 00:58:21;;;;;;;5.10;4.60;;;21.10;31.80;;;;;;4991669;28;20080;-59
2022/03/10 01:00:47;;;;;;;5.47;4.93;;;21.10;31.80;;;;;;4992656;28;20371;-58
2022/03/10 01:03:12;;;;;;;5.38;4.88;;;21.10;31.80;;;;;;4992456;28;20046;-59
2022/03/10 01:05:38;;;;;;;5.22;4.82;;;21.10;31.80;;;;;;4995243;28;20147;-59
2022/03/10 01:08:04;;;;;;;5.25;4.78;;;21.10;31.80;;;;;;4993358;28;20049;-58
2022/03/10 01:10:30;;;;;;;4.97;4.57;;;21.10;31.70;;;;;;4995269;28;20096;-59
2022/03/10 01:12:56;;;;;;;5.63;5.03;;;21.10;31.60;;;;;;4990061;28;20390;-59
2022/03/10 01:15:24;;;;;;;5.28;4.75;;;21.10;31.70;;;;;;4989276;28;20049;-59
2022/03/10 01:17:51;;;;;;;5.70;5.10;;;21.10;31.60;;;;;;4992218;28;20486;-58
2022/03/10 01:20:18;;;;;;;5.50;4.80;;;21.00;31.60;;;;;;4991707;28;20057;-59
2022/03/10 01:22:43;;;;;;;5.40;4.90;;;21.00;31.50;;;;;;4992637;28;20046;-59
2022/03/10 01:25:10;;;;;;;4.97;4.57;;;21.10;31.60;;;;;;4993148;28;20064;-59
2022/03/10 01:27:36;;;;;;;5.45;4.95;;;21.00;31.60;;;;;;4993079;28;20053;-59
2022/03/10 01:30:04;;;;;;;5.75;4.90;;;21.00;31.50;;;;;;4992042;28;20549;-59
2022/03/10 01:32:29;;;;;;;5.47;4.97;;;21.00;32.20;;;;;;4994270;28;20046;-59
2022/03/10 01:34:55;;;;;;;5.22;4.72;;;21.00;31.50;;;;;;4991732;28;20497;-59
2022/03/10 01:37:20;;;;;;;5.78;5.20;;;21.00;31.50;;;;;;4976588;28;20080;-59
2022/03/10 01:39:46;;;;;;;5.57;5.10;;;21.00;31.50;;;;;;4992981;28;20070;-59
2022/03/10 01:42:12;;;;;;;5.35;4.85;;;21.00;31.50;;;;;;4994118;28;20101;-59
2022/03/10 01:44:38;;;;;;;5.32;4.82;;;20.90;31.40;;;;;;4994763;28;20034;-59
2022/03/10 01:47:07;;;;;;;5.10;4.47;;;20.90;31.40;;;;;;4993522;28;20037;-59
2022/03/10 01:49:34;;;;;;;4.95;4.55;;;20.90;31.30;;;;;;4994157;28;20157;-60
2022/03/10 01:52:00;;;;;;;5.25;4.75;;;20.90;31.30;;;;;;4992624;28;20061;-59
2022/03/10 01:54:26;;;;;;;5.47;4.97;;;20.90;31.30;;;;;;5007456;28;20046;-59
2022/03/10 01:56:52;;;;;;;5.18;4.78;;;20.90;31.40;;;;;;4992944;28;20069;-59
2022/03/10 01:59:18;;;;;;;5.88;4.97;;;20.90;31.20;;;;;;4993977;28;20052;-59
2022/03/10 02:01:44;;;;;;;5.60;5.10;;;20.90;31.30;;;;;;4993395;28;20462;-60
2022/03/10 02:04:10;;;;;;;4.60;4.20;;;20.90;31.30;;;;;;4990889;28;20050;-60
2022/03/10 02:06:36;;;;;;;5.20;4.80;;;20.80;31.20;;;;;;4992418;28;20092;-59
2022/03/10 02:11:48;;;;;;;6.03;5.43;;;20.80;31.20;;;;;;4992848;28;20050;-59
2022/03/10 02:19:58;;;;;;;4.80;4.40;;;20.80;31.20;;;;;;4970908;28;20054;-60
2022/03/10 02:22:26;;;;;;;5.45;4.82;;;20.80;31.20;;;;;;4991957;28;20402;-59
2022/03/10 02:24:52;;;;;;;5.88;4.70;;;20.70;31.10;;;;;;4993130;28;20047;-58
2022/03/10 02:27:26;;;;;;;4.75;4.38;;;20.70;31.10;;;;;;4993056;28;20046;-59
2022/03/10 02:29:55;;;;;;;5.47;4.97;;;20.80;31.00;;;;;;4992557;28;20640;-58
2022/03/10 02:32:21;;;;;;;5.47;4.97;;;20.70;31.00;;;;;;4992651;28;20049;-59
2022/03/10 02:34:47;;;;;;;5.50;5.00;;;20.70;31.00;;;;;;4991855;28;20050;-59
2022/03/10 02:37:13;;;;;;;6.10;5.57;;;20.70;31.10;;;;;;4993094;28;20390;-59
2022/03/10 02:39:40;;;;;;;5.45;4.90;;;20.70;31.00;;;;;;4994322;28;20038;-59
2022/03/10 02:42:07;;;;;;;5.30;4.80;;;20.70;31.00;;;;;;4995560;28;20077;-59
2022/03/10 02:44:33;;;;;;;5.43;4.93;;;20.70;31.00;;;;;;4996657;28;20103;-59
2022/03/10 02:46:59;;;;;;;5.57;5.07;;;20.70;30.90;;;;;;4994893;28;20059;-59
2022/03/10 02:49:25;;;;;;;5.57;4.95;;;20.60;30.90;;;;;;4996535;28;20093;-59
2022/03/10 02:51:51;;;;;;;4.80;4.40;;;20.70;30.90;;;;;;4996917;28;20596;-58
2022/03/10 02:54:17;;;;;;;5.45;4.95;;;20.60;30.90;;;;;;4995287;28;20061;-59
2022/03/10 02:56:43;;;;;;;5.88;5.25;;;20.60;30.90;;;;;;4995448;28;20031;-59
2022/03/10 02:59:10;;;;;;;6.38;5.03;;;20.60;30.90;;;;;;4998517;28;20038;-58
2022/03/10 03:01:36;;;;;;;5.78;5.28;;;20.60;30.80;;;;;;4988770;28;20704;-59
2022/03/10 03:04:01;;;;;;;6.00;5.43;;;20.60;30.80;;;;;;4990664;28;20054;-59
2022/03/10 03:06:27;;;;;;;5.45;4.95;;;20.60;30.80;;;;;;4992973;28;20050;-59
2022/03/10 03:08:53;;;;;;;5.57;5.07;;;20.60;30.80;;;;;;4995036;28;20039;-59
2022/03/10 03:11:18;;;;;;;5.72;5.22;;;20.60;30.80;;;;;;4994801;28;20038;-58
2022/03/10 03:13:44;;;;;;;5.50;5.00;;;20.60;30.80;;;;;;4995242;28;20545;-59
2022/03/10 03:16:10;;;;;;;6.65;5.53;;;20.60;30.80;;;;;;4995405;28;20739;-59
2022/03/10 03:18:35;;;;;;;6.55;5.53;;;20.50;30.70;;;;;;4993580;28;20054;-59
2022/03/10 03:21:01;;;;;;;5.72;5.13;;;20.50;30.70;;;;;;4994720;28;20137;-59
2022/03/10 03:23:26;;;;;;;5.93;5.43;;;20.50;30.70;;;;;;4985619;28;20088;-59
2022/03/10 03:25:52;;;;;;;5.80;5.20;;;20.50;30.70;;;;;;4995203;28;20042;-59
2022/03/10 03:28:22;;;;;;;6.30;5.70;;;20.50;30.70;;;;;;5000306;28;20047;-59
2022/03/10 03:30:51;;;;;;;6.10;5.50;;;20.50;30.70;;;;;;4996077;28;20050;-59
2022/03/10 03:33:17;;;;;;;5.60;5.10;;;20.50;30.70;;;;;;4996651;28;20054;-59
2022/03/10 03:35:43;;;;;;;5.57;5.10;;;20.40;30.70;;;;;;4993750;28;20125;-59
2022/03/10 03:38:08;;;;;;;6.55;5.15;;;20.50;30.70;;;;;;4993805;28;20063;-59
2022/03/10 03:40:34;;;;;;;6.50;5.45;;;20.40;30.70;;;;;;4996287;28;20046;-59
2022/03/10 03:43:00;;;;;;;5.43;4.88;;;20.40;30.60;;;;;;4993717;28;20045;-60
2022/03/10 03:45:26;;;;;;;5.93;5.35;;;20.40;30.70;;;;;;4994220;28;20045;-60
2022/03/10 03:47:53;;;;;;;5.53;5.03;;;20.40;30.60;;;;;;4995112;28;20145;-60
2022/03/10 03:50:18;;;;;;;6.55;5.78;;;20.40;30.60;;;;;;4992577;28;20141;-59
2022/03/10 03:52:44;;;;;;;5.35;4.95;;;20.40;30.60;;;;;;4995505;28;20079;-60
2022/03/10 03:55:09;;;;;;;5.82;5.18;;;20.40;30.60;;;;;;4996130;28;20042;-59
2022/03/10 03:57:35;;;;;;;5.70;5.20;;;20.40;30.70;;;;;;4995671;28;20048;-59
2022/03/10 04:00:01;;;;;;;6.00;5.40;;;20.40;30.60;;;;;;4993539;28;20054;-59
2022/03/10 04:02:26;;;;;;;5.80;5.30;;;20.40;30.50;;;;;;4998021;28;20089;-59
2022/03/10 04:04:52;;;;;;;5.90;5.22;;;20.30;30.50;;;;;;4996170;28;20050;-59
2022/03/10 04:07:18;;;;;;;5.93;5.43;;;20.30;30.60;;;;;;4993158;28;20057;-59
2022/03/10 04:09:44;;;;;;;6.05;5.47;;;20.30;30.60;;;;;;4993331;28;20046;-59
2022/03/10 04:12:10;;;;;;;6.18;5.57;;;20.30;30.50;;;;;;4992764;28;20081;-59
2022/03/10 04:14:35;;;;;;;6.22;5.63;;;20.30;30.50;;;;;;4995483;28;20066;-59
2022/03/10 04:17:01;;;;;;;6.00;5.40;;;20.20;30.50;;;;;;4995658;28;20089;-60
2022/03/10 04:19:26;;;;;;;5.60;5.10;;;20.20;30.50;;;;;;4992996;28;20440;-59
2022/03/10 04:21:52;;;;;;;6.38;5.65;;;20.20;30.50;;;;;;4994296;28;20192;-59
2022/03/10 04:24:18;;;;;;;5.50;4.97;;;20.20;30.50;;;;;;4994461;28;20042;-59
2022/03/10 04:26:44;;;;;;;6.15;5.65;;;20.20;30.50;;;;;;4993214;28;20077;-59
2022/03/10 04:29:09;;;;;;;6.18;5.68;;;20.20;30.50;;;;;;4995553;28;20047;-59
2022/03/10 04:31:35;;;;;;;5.50;5.00;;;20.20;30.50;;;;;;4992485;28;20104;-59
2022/03/10 04:34:00;;;;;;;6.18;5.57;;;20.20;31.20;;;;;;4993775;28;20137;-59
2022/03/10 04:36:26;;;;;;;6.05;5.50;;;20.20;30.50;;;;;;4994021;28;20048;-59
2022/03/10 04:38:51;;;;;;;5.85;5.28;;;20.20;30.50;;;;;;4993627;28;20047;-59
2022/03/10 04:41:17;;;;;;;6.75;6.15;;;20.20;30.50;;;;;;4994159;28;20093;-59
2022/03/10 04:43:43;;;;;;;6.20;5.70;;;20.20;30.40;;;;;;4993692;28;20401;-59
2022/03/10 04:46:08;;;;;;;6.10;5.20;;;20.20;30.50;;;;;;4995473;28;20124;-59
2022/03/10 04:48:34;;;;;;;5.63;5.13;;;20.20;30.50;;;;;;4993005;28;20147;-59
2022/03/10 04:51:00;;;;;;;6.13;5.47;;;20.20;30.50;;;;;;4992836;28;20689;-59
2022/03/10 04:53:25;;;;;;;6.28;5.68;;;20.10;30.40;;;;;;4991375;28;20090;-58
2022/03/10 04:55:51;;;;;;;6.15;5.55;;;20.10;30.40;;;;;;4994767;28;20058;-59
2022/03/10 04:58:16;;;;;;;6.20;5.65;;;20.10;30.40;;;;;;4993177;28;20580;-59
2022/03/10 05:00:42;;;;;;;5.55;5.05;;;20.10;30.40;;;;;;4989228;28;20053;-60
2022/03/10 05:03:07;;;;;;;6.00;5.45;;;20.10;30.40;;;;;;4993153;28;20042;-59
2022/03/10 05:05:33;;;;;;;6.63;5.53;;;20.10;30.40;;;;;;4990483;28;20038;-59
2022/03/10 05:07:59;;;;;;;6.05;5.47;;;20.10;30.40;;;;;;4990355;28;20045;-59
2022/03/10 05:10:24;;;;;;;6.38;5.78;;;20.10;30.40;;;;;;4991772;28;20686;-60
2022/03/10 05:12:52;;;;;;;5.88;5.38;;;20.10;30.40;;;;;;4993652;28;20054;-59
2022/03/10 05:15:20;;;;;;;6.10;5.30;;;20.10;30.40;;;;;;4993196;28;20477;-59
2022/03/10 05:17:46;;;;;;;6.50;5.82;;;20.00;30.40;;;;;;4996590;28;20815;-59
2022/03/10 05:20:12;;;;;;;6.45;5.80;;;20.00;30.40;;;;;;4992928;28;20603;-59
2022/03/10 05:22:43;;;;;;;6.32;5.28;;;20.00;30.40;;;;;;4991255;28;20461;-59
2022/03/10 05:25:09;;;;;;;;;;;20.00;30.40;;;;;;4991704;28;20274;-59
2022/03/10 05:27:35;;;;;;;6.65;6.05;;;20.00;30.30;;;;;;4992078;28;20396;-58
2022/03/10 05:30:00;;;;;;;5.88;5.38;;;20.00;30.50;;;;;;4993033;28;20072;-59
2022/03/10 05:32:26;;;;;;;5.68;5.18;;;20.00;30.50;;;;;;4993423;28;20042;-59
2022/03/10 05:34:51;;;;;;;6.03;5.50;;;20.00;30.60;;;;;;4993155;28;20046;-58
2022/03/10 05:37:17;;;;;;;6.43;5.55;;;20.00;30.50;;;;;;4991572;28;20097;-59
2022/03/10 05:39:42;;;;;;;5.93;5.32;;;20.00;30.50;;;;;;4992024;28;20046;-58
2022/03/10 05:42:08;;;;;;;6.03;5.50;;;20.00;30.50;;;;;;4993193;28;20042;-58
2022/03/10 05:44:33;;;;;;;6.35;5.78;;;20.00;30.50;;;;;;4994139;28;20050;-59
2022/03/10 05:46:59;;;;;;;6.32;5.72;;;20.00;30.50;;;;;;4995064;28;20046;-58
2022/03/10 05:49:25;;;;;;;6.05;5.45;;;20.00;30.60;;;;;;4991610;28;20060;-58
2022/03/10 05:51:50;;;;;;;5.95;5.05;;;20.00;30.80;;;;;;4990439;28;20130;-58
2022/03/10 05:54:16;;;;;;;7.10;5.20;;;20.00;31.00;;;;;;4995282;28;20050;-58
2022/03/10 05:56:41;;;;;;;5.95;5.35;;;20.00;31.00;;;;;;4998904;28;20049;-58
2022/03/10 05:59:07;;;;;;;6.18;4.93;;;20.00;31.10;;;;;;4976509;28;20659;-58
2022/03/10 06:01:34;;;;;;;5.22;4.72;;;20.00;31.40;;;;;;4993496;28;20050;-58
2022/03/10 06:03:59;;;;;;;6.55;5.00;;;20.00;31.70;;;;;;4992713;28;20042;-59
2022/03/10 06:06:25;;;;;;;5.68;4.85;;;20.00;31.70;;;;;;4992367;28;20521;-58
2022/03/10 06:08:51;;;;;;;6.10;5.50;;;19.90;31.70;;;;;;4994796;28;20042;-59
2022/03/10 06:11:17;;;;;;;5.35;4.95;;;19.90;31.80;;;;;;4993275;28;20124;-60
2022/03/10 06:13:42;;;;;;;5.78;4.60;;;19.90;32.00;;;;;;5000848;28;20042;-58
2022/03/10 06:16:08;;;;;;;6.40;5.38;;;19.90;32.10;;;;;;4998521;28;20046;-59
2022/03/10 06:18:34;;;;;;;6.75;4.90;;;19.90;32.10;;;;;;4998614;28;20164;-59
2022/03/10 06:21:00;;;;;;;5.47;4.95;;;19.90;32.20;;;;;;4997202;28;20333;-59
2022/03/10 06:23:26;;;;;;;6.47;4.78;;;19.90;32.30;;;;;;4995377;28;21063;-58
2022/03/10 06:25:51;;;;;;;5.68;5.18;;;19.90;32.30;;;;;;4995236;28;20076;-58
2022/03/10 06:28:17;;;;;;;5.43;4.93;;;19.90;33.10;;;;;;4994093;28;20857;-58
2022/03/10 06:30:42;;;;;;;6.22;4.60;;;19.90;32.40;;;;;;4996673;28;20069;-59
2022/03/10 06:33:08;;;;;;;5.03;4.25;;;19.90;32.40;;;;;;4993599;28;20057;-59
2022/03/10 06:35:33;;;;;;;5.47;4.90;;;19.90;32.50;;;;;;4998113;28;20045;-58
2022/03/10 06:37:59;;;;;;;5.13;4.72;;;19.90;32.50;;;;;;4995281;28;20042;-59
2022/03/10 06:40:24;;;;;;;5.43;4.95;;;19.80;32.40;;;;;;4996354;28;20125;-56
2022/03/10 06:42:50;;;;;;;5.63;4.88;;;19.90;32.50;;;;;;4998348;28;20485;-57
2022/03/10 06:45:15;;;;;;;5.57;4.80;;;19.90;32.40;;;;;;4992904;28;20389;-57
2022/03/10 06:47:41;;;;;;;4.88;4.47;;;19.90;32.40;;;;;;4995164;28;20053;-57
2022/03/10 06:50:07;;;;;;;5.85;5.03;;;19.90;32.40;;;;;;5010542;28;20064;-56
2022/03/10 06:52:33;;;;;;;4.95;4.45;;;19.90;32.40;;;;;;4995521;28;20038;-56
2022/03/10 06:55:02;;;;;;;5.63;4.82;;;20.00;32.60;;;;;;4995532;28;20356;-57
2022/03/10 06:57:27;;;;;;;5.07;4.57;;;20.00;32.50;;;;;;4996509;28;20458;-56
2022/03/10 06:59:53;;;;;;;5.65;5.07;;;20.00;32.60;;;;;;4996090;28;20456;-56
2022/03/10 07:02:18;;;;;;;5.25;4.75;;;20.00;32.50;;;;;;4994078;28;20038;-57
2022/03/10 07:04:44;;;;;;;6.72;5.45;;;20.00;32.40;;;;;;4997024;28;20093;-56
2022/03/10 07:07:10;;;;;;;6.30;5.78;;;20.00;32.30;;;;;;5009894;28;20054;-56
2022/03/10 07:09:35;;;;;;;9.77;5.65;;;20.00;32.30;;;;;;4993514;28;20053;-55
2022/03/10 07:12:01;;;;;;;5.65;5.15;;;20.00;32.30;;;;;;4996650;28;20436;-57
2022/03/10 07:14:27;;;;;;;6.50;4.70;;;20.10;32.40;;;;;;4996075;28;20037;-56
2022/03/10 07:16:52;;;;;;;7.65;5.05;;;20.10;32.50;;;;;;4995777;28;20065;-56
2022/03/10 07:19:18;;;;;;;5.80;5.20;;;20.10;32.50;;;;;;4994055;28;20494;-56
2022/03/10 07:21:44;;;;;;;5.63;4.95;;;20.10;32.50;;;;;;4994510;28;20152;-57
2022/03/10 07:24:10;;;;;;;6.63;5.35;;;20.10;32.50;;;;;;4980160;28;20057;-59
2022/03/10 07:26:36;;;;;;;6.30;5.70;;;20.10;32.40;;;;;;4994286;28;20038;-59
2022/03/10 07:29:02;;;;;;;7.65;5.00;;;20.10;32.30;;;;;;4994538;28;21118;-58
2022/03/10 07:31:29;;;;;;;7.35;5.30;;;20.20;32.40;;;;;;4994881;28;20088;-59
2022/03/10 07:33:55;;;;;;;5.28;4.80;;;20.10;32.40;;;;;;4996190;28;20115;-58
2022/03/10 07:36:21;;;;;;;6.00;5.28;;;20.20;32.50;;;;;;4993636;28;20462;-62
2022/03/10 07:38:46;;;;;;;6.53;5.75;;;20.20;32.50;;;;;;4997445;28;20046;-64
2022/03/10 07:41:12;;;;;;;6.65;6.05;;;20.20;32.50;;;;;;4996224;28;20046;-59
2022/03/10 07:43:37;;;;;;;6.05;5.45;;;20.20;32.60;;;;;;4996272;28;20053;-59
2022/03/10 07:46:06;;;;;;;6.65;6.03;;;20.20;32.50;;;;;;4996567;28;20054;-59
2022/03/10 07:48:32;;;;;;;5.93;5.43;;;20.20;32.50;;;;;;4996056;28;20066;-59
2022/03/10 07:50:58;;;;;;;6.43;5.82;;;20.20;32.50;;;;;;4995080;28;20098;-59
2022/03/10 07:53:24;;;;;;;6.47;5.80;;;20.20;32.60;;;;;;4996765;28;20052;-59
2022/03/10 07:55:54;;;;;;;6.38;5.75;;;20.20;32.60;;;;;;4994042;28;20121;-58
2022/03/10 07:58:23;;;;;;;6.10;5.50;;;20.20;32.60;;;;;;4996186;28;20065;-59
2022/03/10 08:00:49;;;;;;;6.70;5.70;;;20.20;32.60;;;;;;4996145;28;20046;-59
2022/03/10 08:03:15;;;;;;;5.90;5.40;;;20.20;32.60;;;;;;4995768;28;20586;-59
2022/03/10 08:05:43;;;;;;;7.53;5.80;;;20.20;32.70;;;;;;4996208;28;20042;-59
2022/03/10 08:08:08;;;;;;;6.03;5.43;;;20.20;32.70;;;;;;4994675;28;20159;-58
2022/03/10 08:10:34;;;;;;;7.35;5.70;;;20.20;32.70;;;;;;4991872;28;20489;-59
2022/03/10 08:12:59;;;;;;;6.75;5.20;;;20.20;32.80;;;;;;4993350;28;20532;-58
2022/03/10 08:15:26;;;;;;;6.65;5.47;;;20.20;32.90;;;;;;4993440;28;20663;-58
2022/03/10 08:17:52;;;;;;;7.95;5.25;;;20.30;33.00;;;;;;4994497;28;20128;-58
2022/03/10 08:20:17;;;;;;;6.15;5.20;;;20.20;32.90;;;;;;4993735;28;20132;-58
2022/03/10 08:22:43;;;;;;;8.20;5.78;;;20.30;32.90;;;;;;4995651;28;20043;-57
2022/03/10 08:25:09;;;;;;;7.65;5.28;;;20.30;32.70;;;;;;4995454;28;20509;-58
2022/03/10 08:27:34;;;;;;;7.30;5.10;;;20.30;32.70;;;;;;4995052;28;20054;-58
2022/03/10 08:30:00;;;;;;;5.75;5.07;;;20.30;32.80;;;;;;4981371;28;20058;-58
2022/03/10 08:32:26;;;;;;;6.07;5.05;;;20.30;33.00;;;;;;4993364;28;20133;-58
2022/03/10 08:34:52;;;;;;;6.13;5.25;;;20.30;33.00;;;;;;4994790;28;20057;-58
2022/03/10 08:37:18;;;;;;;5.95;5.07;;;20.40;33.20;;;;;;4991433;28;20041;-58
2022/03/10 08:39:44;;;;;;;5.85;4.65;;;20.30;33.10;;;;;;4994502;28;21013;-58
2022/03/10 08:42:10;;;;;;;7.80;4.25;;;20.30;33.20;;;;;;4995302;28;20046;-58
2022/03/10 08:44:36;;;;;;;5.43;4.38;;;20.40;33.30;;;;;;4991641;28;20133;-58
2022/03/10 08:47:01;;;;;;;5.45;4.70;;;20.40;33.40;;;;;;4991399;28;20084;-58
2022/03/10 08:49:27;;;;;;;5.25;4.50;;;20.40;33.40;;;;;;4990674;28;20054;-58
2022/03/10 08:51:53;;;;;;;11.18;4.70;;;20.40;33.40;;;;;;4995126;28;20046;-58
2022/03/10 08:54:18;;;;;;;4.57;4.15;;;20.40;33.40;;;;;;4993988;28;20053;-58
2022/03/10 08:56:44;;;;;;;5.05;4.55;;;20.40;33.40;;;;;;4975586;28;20405;-58
2022/03/10 08:59:09;;;;;;;6.03;4.25;;;20.40;33.40;;;;;;4994707;28;20515;-58
2022/03/10 09:01:35;;;;;;;4.80;4.28;;;20.40;33.40;;;;;;4992790;28;20123;-58
2022/03/10 09:04:00;;;;;;;4.60;4.15;;;20.40;33.40;;;;;;4994083;28;20046;-58
2022/03/10 09:06:26;;;;;;;4.68;4.20;;;20.40;33.40;;;;;;4979656;28;20141;-58
2022/03/10 09:08:52;;;;;;;5.18;4.43;;;20.50;33.40;;;;;;4994562;28;20100;-58
2022/03/10 09:11:17;;;;;;;4.43;3.85;;;20.50;33.40;;;;;;4991776;28;20139;-58
2022/03/10 09:13:48;;;;;;;4.40;4.00;;;20.50;33.40;;;;;;4994857;28;20100;-58
2022/03/10 09:16:21;;;;;;;4.13;3.78;;;20.50;33.40;;;;;;4993448;28;20096;-58
2022/03/10 09:18:48;;;;;;;4.82;3.50;;;20.50;33.40;;;;;;5000602;28;20399;-58
2022/03/10 09:21:15;;;;;;;4.82;4.00;;;20.60;33.40;;;;;;4990911;28;20081;-58
2022/03/10 09:23:40;;;;;;;3.63;3.33;;;20.60;33.50;;;;;;4997368;28;20046;-58
2022/03/10 09:26:06;;;;;;;4.28;3.88;;;20.50;33.30;;;;;;4993897;28;20465;-58
2022/03/10 09:28:32;;;;;;;4.20;3.80;;;20.50;33.40;;;;;;4991442;28;20050;-58
2022/03/10 09:30:58;;;;;;;3.92;3.50;;;20.60;33.40;;;;;;4995290;28;20049;-58
2022/03/10 09:33:23;;;;;;;3.95;3.63;;;20.50;33.30;;;;;;4992989;28;20137;-58
2022/03/10 09:35:49;;;;;;;4.60;3.67;;;20.60;33.70;;;;;;4993243;28;20406;-58
2022/03/10 09:38:15;;;;;;;4.57;3.80;;;20.60;33.40;;;;;;4994196;28;20117;-58
2022/03/10 09:40:41;;;;;;;3.85;3.50;;;20.60;33.40;;;;;;4992785;28;20050;-58
2022/03/10 09:43:07;;;;;;;5.40;3.67;;;20.60;33.40;;;;;;4992458;28;20478;-58
2022/03/10 09:45:34;;;;;;;4.68;4.28;;;20.60;33.40;;;;;;5007308;28;20038;-58
2022/03/10 09:48:01;;;;;;;4.40;4.00;;;20.60;33.40;;;;;;4994565;28;20437;-58
2022/03/10 09:50:27;;;;;;;3.42;3.13;;;20.70;33.50;;;;;;4998514;28;20046;-58
2022/03/10 09:52:52;;;;;;;4.03;3.63;;;20.70;33.50;;;;;;4996775;28;20061;-58
2022/03/10 09:55:19;;;;;;;3.58;3.28;;;20.70;33.50;;;;;;4997262;28;20394;-57
2022/03/10 09:57:46;;;;;;;5.55;3.90;;;20.70;33.50;;;;;;4996714;28;20046;-58
2022/03/10 10:00:14;;;;;;;3.90;3.53;;;20.70;33.50;;;;;;4996563;28;20072;-58
2022/03/10 10:02:40;;;;;;;3.97;3.58;;;20.70;33.50;;;;;;4996449;28;20589;-58
2022/03/10 10:05:25;;;;;;;4.80;3.85;;;20.70;33.50;;;;;;4997304;28;20046;-58
2022/03/10 10:08:14;;;;;;;4.95;3.58;;;20.70;33.50;;;;;;4995926;28;20042;-58
2022/03/10 10:10:53;;;;;;;3.70;3.40;;;20.70;33.50;;;;;;4994988;28;20050;-58
2022/03/10 10:13:30;;;;;;;4.10;3.70;;;20.80;33.50;;;;;;4993873;28;20089;-58
2022/03/10 10:16:14;;;;;;;4.32;3.55;;;20.80;33.50;;;;;;4997586;28;20046;-58
2022/03/10 10:18:40;;;;;;;3.72;3.33;;;20.80;33.50;;;;;;4996896;28;20116;-59
2022/03/10 10:21:08;;;;;;;3.92;3.53;;;20.80;34.30;;;;;;4995628;28;20048;-58
2022/03/10 10:23:35;;;;;;;3.53;3.20;;;20.80;33.50;;;;;;4994945;28;20084;-59
2022/03/10 10:26:06;;;;;;;4.03;3.60;;;20.80;33.50;;;;;;4994505;28;20092;-59
2022/03/10 10:28:44;;;;;;;4.50;3.38;;;20.90;33.60;;;;;;4993952;28;20081;-58
2022/03/10 10:31:12;;;;;;;3.47;3.17;;;20.90;33.50;;;;;;4997162;28;20113;-59
2022/03/10 10:33:39;;;;;;;4.30;3.53;;;20.80;33.50;;;;;;4996937;28;20509;-59
2022/03/10 10:36:25;;;;;;;3.75;3.35;;;20.80;33.50;;;;;;4998213;28;20456;-59
2022/03/10 10:38:53;;;;;;;3.75;3.20;;;20.80;33.50;;;;;;4997061;28;20220;-59
2022/03/10 10:41:30;;;;;;;3.65;3.35;;;20.80;34.30;;;;;;4997304;28;20046;-58
2022/03/10 10:44:03;;;;;;;3.47;2.95;;;20.90;33.60;;;;;;5011727;28;20065;-58
2022/03/10 10:46:34;;;;;;;3.70;3.40;;;20.90;33.60;;;;;;4994739;28;20513;-58
2022/03/10 10:49:10;;;;;;;3.60;3.30;;;20.90;33.60;;;;;;4992655;28;20608;-59
2022/03/10 10:51:40;;;;;;;3.53;3.10;;;20.90;33.60;;;;;;4993635;28;20511;-59
2022/03/10 10:54:31;;;;;;;3.53;3.22;;;20.90;33.60;;;;;;4996718;28;20453;-59
2022/03/10 10:57:02;;;;;;;3.30;3.00;;;20.90;33.60;;;;;;4997266;28;20617;-59
2022/03/10 10:59:32;;;;;;;3.70;3.38;;;20.90;33.70;;;;;;4995002;28;20042;-59
2022/03/10 11:02:08;;;;;;;3.83;3.22;;;20.90;33.70;;;;;;4992281;28;21036;-59
2022/03/10 11:04:35;;;;;;;3.58;3.25;;;20.90;33.70;;;;;;4994132;28;20053;-58
2022/03/10 11:07:00;;;;;;;3.75;3.40;;;20.90;33.60;;;;;;4996080;28;20196;-59
2022/03/10 11:09:26;;;;;;;3.80;3.40;;;20.90;33.60;;;;;;4995399;28;20050;-58
2022/03/10 11:11:53;;;;;;;3.55;3.25;;;20.90;33.60;;;;;;4995476;28;20521;-59
2022/03/10 11:14:19;;;;;;;3.38;3.08;;;21.00;33.70;;;;;;5002625;28;20054;-58
2022/03/10 11:16:46;;;;;;;3.40;3.10;;;20.90;33.70;;;;;;4996294;28;20100;-59
2022/03/10 11:19:17;;;;;;;3.95;3.45;;;21.00;33.70;;;;;;4993499;28;20058;-58
2022/03/10 11:22:10;;;;;;;3.65;3.28;;;21.00;33.70;;;;;;4995913;28;20046;-59
2022/03/10 11:24:57;;;;;;;3.38;3.08;;;21.00;33.80;;;;;;4997302;28;20492;-59
2022/03/10 11:27:28;;;;;;;3.50;3.13;;;21.00;33.80;;;;;;4995755;28;20080;-58
2022/03/10 11:29:56;;;;;;;3.83;3.33;;;21.00;33.80;;;;;;4996537;28;20054;-58
2022/03/10 11:32:28;;;;;;;4.35;3.42;;;21.00;33.80;;;;;;4995063;28;20050;-58
2022/03/10 11:34:56;;;;;;;3.80;3.50;;;21.00;33.80;;;;;;4995855;28;20050;-59
2022/03/10 11:37:48;;;;;;;4.30;3.70;;;21.00;33.80;;;;;;4996431;28;20046;-59
2022/03/10 11:40:16;;;;;;;3.75;3.40;;;21.00;33.80;;;;;;4993438;28;20042;-58
2022/03/10 11:42:42;;;;;;;4.35;3.30;;;21.00;33.80;;;;;;4994843;28;20054;-59
2022/03/10 11:45:21;;;;;;;3.63;3.13;;;21.00;33.80;;;;;;4997734;28;20057;-59
2022/03/10 11:47:48;;;;;;;3.90;3.60;;;21.00;33.90;;;;;;4993564;28;20046;-59
2022/03/10 11:50:23;;;;;;;4.30;3.88;;;21.00;33.90;;;;;;4994809;28;20050;-59
2022/03/10 11:53:04;;;;;;;4.53;3.83;;;21.00;34.00;;;;;;4982625;28;20123;-59
2022/03/10 11:55:48;;;;;;;5.10;3.38;;;21.00;34.10;;;;;;4994838;28;20076;-59
2022/03/10 11:58:14;;;;;;;5.05;3.53;;;21.00;34.30;;;;;;4994305;28;20107;-59
2022/03/10 12:00:47;;;;;;;3.78;3.40;;;21.00;34.30;;;;;;4994428;28;20173;-58
2022/03/10 12:03:24;;;;;;;3.90;3.60;;;21.00;34.40;;;;;;4992139;28;20136;-58
2022/03/10 12:05:55;;;;;;;3.90;3.58;;;21.00;34.40;;;;;;4999674;28;20050;-59
2022/03/10 12:08:22;;;;;;;5.07;3.85;;;21.00;34.50;;;;;;4995076;28;20050;-59
2022/03/10 12:10:48;;;;;;;4.25;3.47;;;21.00;34.60;;;;;;4994887;28;20053;-58
2022/03/10 12:13:32;;;;;;;4.70;4.13;;;21.00;34.70;;;;;;4992725;28;20413;-59
2022/03/10 12:15:58;;;;;;;3.95;3.58;;;21.10;34.70;;;;;;4995027;28;20474;-59
2022/03/10 12:18:44;;;;;;;6.38;3.67;;;21.10;34.80;;;;;;4995178;28;20046;-59
2022/03/10 12:21:20;;;;;;;3.88;3.47;;;21.00;34.80;;;;;;4994351;28;20065;-59
2022/03/10 12:23:57;;;;;;;4.15;3.75;;;21.10;35.00;;;;;;4992765;28;20485;-59
2022/03/10 12:26:34;;;;;;;4.25;3.67;;;21.00;34.90;;;;;;4995153;28;20077;-59
2022/03/10 12:29:11;;;;;;;3.97;3.55;;;21.10;35.00;;;;;;4994913;28;20042;-59
2022/03/10 12:31:38;;;;;;;3.63;3.33;;;21.10;35.00;;;;;;5009199;28;20105;-60
2022/03/10 12:34:06;;;;;;;4.82;3.70;;;21.10;35.10;;;;;;4991215;28;20033;-58
2022/03/10 12:36:38;;;;;;;3.88;3.55;;;21.10;35.10;;;;;;4993328;28;20702;-59
2022/03/10 12:39:12;;;;;;;4.50;3.53;;;21.10;35.10;;;;;;4994899;28;20184;-59
2022/03/10 12:41:47;;;;;;;4.00;3.45;;;21.10;35.10;;;;;;4994386;28;20265;-59
2022/03/10 12:44:13;;;;;;;3.65;3.35;;;21.10;35.10;;;;;;4996147;28;20054;-59
2022/03/10 12:46:41;;;;;;;3.80;3.42;;;21.10;35.10;;;;;;4993672;28;20049;-58
2022/03/10 12:49:27;;;;;;;3.80;3.50;;;21.10;35.10;;;;;;4989042;28;20047;-59
2022/03/10 12:51:57;;;;;;;5.78;3.63;;;21.10;35.20;;;;;;4997559;28;20054;-59
2022/03/10 12:54:23;;;;;;;5.27;3.97;;;21.10;35.10;;;;;;4994510;28;20058;-60
2022/03/10 12:56:51;;;;;;;4.90;4.03;;;21.10;35.20;;;;;;4993651;28;20046;-59